sensor_id;sensor_type;location;lat;lon;timestamp;P1;P2;P0
62591;PMS5003;48659;41.622;2.276;2022-12-08T00:02:23;76;68;
62591;PMS5003;48659;41.622;2.276;2022-12-08T00:04:51;79;73;
62591;PMS5003;48659;41.622;2.276;2022-12-08T00:07:19;72;64;
62591;PMS5003;48659;41.622;2.276;2022-12-08T00:09:46;73;72;
62591;PMS5003;48659;41.622;2.276;2022-12-08T00:12:15;75;70;
62591;PMS5003;48659;41.622;2.276;2022-12-08T00:14:43;71;67;
62591;PMS5003;48659;41.622;2.276;2022-12-08T00:17:13;77;66;
62591;PMS5003;48659;41.622;2.276;2022-12-08T00:19:41;70;65;
62591;PMS5003;48659;41.622;2.276;2022-12-08T00:22:10;82;70;
62591;PMS5003;48659;41.622;2.276;2022-12-08T00:24:39;76;72;
62591;PMS5003;48659;41.622;2.276;2022-12-08T00:27:09;76;70;
62591;PMS5003;48659;41.622;2.276;2022-12-08T00:29:37;75;67;
62591;PMS5003;48659;41.622;2.276;2022-12-08T00:32:07;75;71;
62591;PMS5003;48659;41.622;2.276;2022-12-08T00:34:34;79;72;
62591;PMS5003;48659;41.622;2.276;2022-12-08T00:37:02;81;75;
62591;PMS5003;48659;41.622;2.276;2022-12-08T00:39:34;70;65;
62591;PMS5003;48659;41.622;2.276;2022-12-08T00:42:02;72;68;
62591;PMS5003;48659;41.622;2.276;2022-12-08T00:44:29;81;76;
62591;PMS5003;48659;41.622;2.276;2022-12-08T00:46:59;73;66;
62591;PMS5003;48659;41.622;2.276;2022-12-08T00:49:27;71;68;
62591;PMS5003;48659;41.622;2.276;2022-12-08T00:51:55;79;71;
62591;PMS5003;48659;41.622;2.276;2022-12-08T00:54:23;76;69;
62591;PMS5003;48659;41.622;2.276;2022-12-08T00:56:50;82;72;
62591;PMS5003;48659;41.622;2.276;2022-12-08T00:59:19;68;62;
62591;PMS5003;48659;41.622;2.276;2022-12-08T01:01:46;68;65;
62591;PMS5003;48659;41.622;2.276;2022-12-08T01:04:15;59;58;
62591;PMS5003;48659;41.622;2.276;2022-12-08T01:06:43;70;66;
62591;PMS5003;48659;41.622;2.276;2022-12-08T01:09:11;75;70;
62591;PMS5003;48659;41.622;2.276;2022-12-08T01:11:40;66;60;
62591;PMS5003;48659;41.622;2.276;2022-12-08T01:14:08;69;63;
62591;PMS5003;48659;41.622;2.276;2022-12-08T01:16:36;75;71;
62591;PMS5003;48659;41.622;2.276;2022-12-08T01:19:08;74;67;
62591;PMS5003;48659;41.622;2.276;2022-12-08T01:21:36;68;63;
62591;PMS5003;48659;41.622;2.276;2022-12-08T01:24:06;75;67;
62591;PMS5003;48659;41.622;2.276;2022-12-08T01:26:36;73;67;
62591;PMS5003;48659;41.622;2.276;2022-12-08T01:29:19;75;69;
62591;PMS5003;48659;41.622;2.276;2022-12-08T01:31:46;74;68;
62591;PMS5003;48659;41.622;2.276;2022-12-08T01:34:13;72;68;
62591;PMS5003;48659;41.622;2.276;2022-12-08T01:36:41;77;66;
62591;PMS5003;48659;41.622;2.276;2022-12-08T01:39:12;69;67;
62591;PMS5003;48659;41.622;2.276;2022-12-08T01:41:42;71;69;
62591;PMS5003;48659;41.622;2.276;2022-12-08T01:45:16;79;72;
62591;PMS5003;48659;41.622;2.276;2022-12-08T01:47:51;82;74;
62591;PMS5003;48659;41.622;2.276;2022-12-08T01:50:23;78;73;
62591;PMS5003;48659;41.622;2.276;2022-12-08T01:52:53;75;70;
62591;PMS5003;48659;41.622;2.276;2022-12-08T01:55:25;86;83;
62591;PMS5003;48659;41.622;2.276;2022-12-08T01:57:59;78;70;
62591;PMS5003;48659;41.622;2.276;2022-12-08T02:00:34;79;69;
62591;PMS5003;48659;41.622;2.276;2022-12-08T02:03:02;72;69;
62591;PMS5003;48659;41.622;2.276;2022-12-08T02:05:34;77;73;
62591;PMS5003;48659;41.622;2.276;2022-12-08T02:08:08;80;69;
62591;PMS5003;48659;41.622;2.276;2022-12-08T02:10:40;79;72;
62591;PMS5003;48659;41.622;2.276;2022-12-08T02:13:09;81;72;
62591;PMS5003;48659;41.622;2.276;2022-12-08T02:15:42;89;84;
62591;PMS5003;48659;41.622;2.276;2022-12-08T02:18:24;86;79;
62591;PMS5003;48659;41.622;2.276;2022-12-08T02:21:05;70;67;
62591;PMS5003;48659;41.622;2.276;2022-12-08T02:23:40;82;75;
62591;PMS5003;48659;41.622;2.276;2022-12-08T02:27:32;73;69;
62591;PMS5003;48659;41.622;2.276;2022-12-08T02:30:14;77;71;
62591;PMS5003;48659;41.622;2.276;2022-12-08T02:33:58;74;68;
62591;PMS5003;48659;41.622;2.276;2022-12-08T02:36:40;71;69;
62591;PMS5003;48659;41.622;2.276;2022-12-08T02:39:19;79;71;
62591;PMS5003;48659;41.622;2.276;2022-12-08T02:41:55;72;64;
62591;PMS5003;48659;41.622;2.276;2022-12-08T02:44:31;84;78;
62591;PMS5003;48659;41.622;2.276;2022-12-08T02:47:08;79;73;
62591;PMS5003;48659;41.622;2.276;2022-12-08T02:49:40;79;70;
62591;PMS5003;48659;41.622;2.276;2022-12-08T02:53:17;89;80;
62591;PMS5003;48659;41.622;2.276;2022-12-08T02:55:49;72;68;
62591;PMS5003;48659;41.622;2.276;2022-12-08T02:58:28;77;73;
62591;PMS5003;48659;41.622;2.276;2022-12-08T03:01:18;76;72;
62591;PMS5003;48659;41.622;2.276;2022-12-08T03:03:58;74;72;
62591;PMS5003;48659;41.622;2.276;2022-12-08T03:06:58;87;76;
62591;PMS5003;48659;41.622;2.276;2022-12-08T03:09:33;73;68;
62591;PMS5003;48659;41.622;2.276;2022-12-08T03:12:08;77;74;
62591;PMS5003;48659;41.622;2.276;2022-12-08T03:14:43;80;76;
62591;PMS5003;48659;41.622;2.276;2022-12-08T03:17:13;76;74;
62591;PMS5003;48659;41.622;2.276;2022-12-08T03:19:45;79;74;
62591;PMS5003;48659;41.622;2.276;2022-12-08T03:22:15;74;64;
62591;PMS5003;48659;41.622;2.276;2022-12-08T03:24:46;68;65;
62591;PMS5003;48659;41.622;2.276;2022-12-08T03:27:15;75;69;
62591;PMS5003;48659;41.622;2.276;2022-12-08T03:29:46;76;69;
62591;PMS5003;48659;41.622;2.276;2022-12-08T03:32:19;76;68;
62591;PMS5003;48659;41.622;2.276;2022-12-08T03:34:52;66;60;
62591;PMS5003;48659;41.622;2.276;2022-12-08T03:37:22;84;73;
62591;PMS5003;48659;41.622;2.276;2022-12-08T03:39:52;73;71;
62591;PMS5003;48659;41.622;2.276;2022-12-08T03:42:19;78;70;
62591;PMS5003;48659;41.622;2.276;2022-12-08T03:44:46;77;66;
62591;PMS5003;48659;41.622;2.276;2022-12-08T03:47:16;80;74;
62591;PMS5003;48659;41.622;2.276;2022-12-08T03:49:43;74;67;
62591;PMS5003;48659;41.622;2.276;2022-12-08T03:52:13;72;68;
62591;PMS5003;48659;41.622;2.276;2022-12-08T03:54:41;74;73;
62591;PMS5003;48659;41.622;2.276;2022-12-08T03:57:09;72;64;
62591;PMS5003;48659;41.622;2.276;2022-12-08T03:59:37;74;67;
62591;PMS5003;48659;41.622;2.276;2022-12-08T04:02:05;71;64;
62591;PMS5003;48659;41.622;2.276;2022-12-08T04:04:33;75;70;
62591;PMS5003;48659;41.622;2.276;2022-12-08T04:07:00;69;65;
62591;PMS5003;48659;41.622;2.276;2022-12-08T04:09:27;71;66;
62591;PMS5003;48659;41.622;2.276;2022-12-08T04:11:55;73;68;
62591;PMS5003;48659;41.622;2.276;2022-12-08T04:14:27;74;70;
62591;PMS5003;48659;41.622;2.276;2022-12-08T04:16:54;67;66;
62591;PMS5003;48659;41.622;2.276;2022-12-08T04:19:22;64;61;
62591;PMS5003;48659;41.622;2.276;2022-12-08T04:21:49;67;66;
62591;PMS5003;48659;41.622;2.276;2022-12-08T04:24:16;70;65;
62591;PMS5003;48659;41.622;2.276;2022-12-08T04:26:44;68;65;
62591;PMS5003;48659;41.622;2.276;2022-12-08T04:29:16;78;71;
62591;PMS5003;48659;41.622;2.276;2022-12-08T04:31:49;70;62;
62591;PMS5003;48659;41.622;2.276;2022-12-08T04:34:17;65;63;
62591;PMS5003;48659;41.622;2.276;2022-12-08T04:36:44;65;62;
62591;PMS5003;48659;41.622;2.276;2022-12-08T04:39:11;69;62;
62591;PMS5003;48659;41.622;2.276;2022-12-08T04:41:39;76;70;
62591;PMS5003;48659;41.622;2.276;2022-12-08T04:44:07;75;70;
62591;PMS5003;48659;41.622;2.276;2022-12-08T04:46:34;77;72;
62591;PMS5003;48659;41.622;2.276;2022-12-08T04:49:02;66;62;
62591;PMS5003;48659;41.622;2.276;2022-12-08T04:51:29;69;67;
62591;PMS5003;48659;41.622;2.276;2022-12-08T04:53:56;68;66;
62591;PMS5003;48659;41.622;2.276;2022-12-08T04:56:24;73;62;
62591;PMS5003;48659;41.622;2.276;2022-12-08T04:58:52;66;63;
62591;PMS5003;48659;41.622;2.276;2022-12-08T05:01:19;77;66;
62591;PMS5003;48659;41.622;2.276;2022-12-08T05:03:48;75;70;
62591;PMS5003;48659;41.622;2.276;2022-12-08T05:06:16;60;59;
62591;PMS5003;48659;41.622;2.276;2022-12-08T05:08:43;72;65;
62591;PMS5003;48659;41.622;2.276;2022-12-08T05:11:11;81;70;
62591;PMS5003;48659;41.622;2.276;2022-12-08T05:13:39;75;67;
62591;PMS5003;48659;41.622;2.276;2022-12-08T05:16:10;70;64;
62591;PMS5003;48659;41.622;2.276;2022-12-08T05:18:39;72;69;
62591;PMS5003;48659;41.622;2.276;2022-12-08T05:21:07;73;69;
62591;PMS5003;48659;41.622;2.276;2022-12-08T05:23:35;70;68;
62591;PMS5003;48659;41.622;2.276;2022-12-08T05:26:08;67;64;
62591;PMS5003;48659;41.622;2.276;2022-12-08T05:28:35;80;69;
62591;PMS5003;48659;41.622;2.276;2022-12-08T05:31:03;71;69;
62591;PMS5003;48659;41.622;2.276;2022-12-08T05:33:40;73;67;
62591;PMS5003;48659;41.622;2.276;2022-12-08T05:36:08;71;65;
62591;PMS5003;48659;41.622;2.276;2022-12-08T05:38:38;67;60;
62591;PMS5003;48659;41.622;2.276;2022-12-08T05:41:06;70;64;
62591;PMS5003;48659;41.622;2.276;2022-12-08T05:43:34;72;68;
62591;PMS5003;48659;41.622;2.276;2022-12-08T05:46:07;70;65;
62591;PMS5003;48659;41.622;2.276;2022-12-08T05:48:35;72;67;
62591;PMS5003;48659;41.622;2.276;2022-12-08T05:51:03;73;61;
62591;PMS5003;48659;41.622;2.276;2022-12-08T05:53:38;67;63;
62591;PMS5003;48659;41.622;2.276;2022-12-08T05:56:08;72;67;
62591;PMS5003;48659;41.622;2.276;2022-12-08T05:58:35;81;75;
62591;PMS5003;48659;41.622;2.276;2022-12-08T06:01:03;78;70;
62591;PMS5003;48659;41.622;2.276;2022-12-08T06:03:31;70;66;
62591;PMS5003;48659;41.622;2.276;2022-12-08T06:05:59;78;67;
62591;PMS5003;48659;41.622;2.276;2022-12-08T06:08:27;80;73;
62591;PMS5003;48659;41.622;2.276;2022-12-08T06:10:57;68;63;
62591;PMS5003;48659;41.622;2.276;2022-12-08T06:13:24;75;68;
62591;PMS5003;48659;41.622;2.276;2022-12-08T06:15:51;66;63;
62591;PMS5003;48659;41.622;2.276;2022-12-08T06:18:19;74;68;
62591;PMS5003;48659;41.622;2.276;2022-12-08T06:20:48;81;69;
62591;PMS5003;48659;41.622;2.276;2022-12-08T06:23:26;74;67;
62591;PMS5003;48659;41.622;2.276;2022-12-08T06:25:54;68;65;
62591;PMS5003;48659;41.622;2.276;2022-12-08T06:28:28;61;61;
62591;PMS5003;48659;41.622;2.276;2022-12-08T06:30:55;65;60;
62591;PMS5003;48659;41.622;2.276;2022-12-08T06:33:23;73;67;
62591;PMS5003;48659;41.622;2.276;2022-12-08T06:35:51;70;64;
62591;PMS5003;48659;41.622;2.276;2022-12-08T06:38:19;67;61;
62591;PMS5003;48659;41.622;2.276;2022-12-08T06:40:52;71;68;
62591;PMS5003;48659;41.622;2.276;2022-12-08T06:43:21;67;64;
62591;PMS5003;48659;41.622;2.276;2022-12-08T06:45:49;68;66;
62591;PMS5003;48659;41.622;2.276;2022-12-08T06:48:17;69;62;
62591;PMS5003;48659;41.622;2.276;2022-12-08T06:50:45;76;69;
62591;PMS5003;48659;41.622;2.276;2022-12-08T06:53:18;68;66;
62591;PMS5003;48659;41.622;2.276;2022-12-08T06:55:47;74;68;
62591;PMS5003;48659;41.622;2.276;2022-12-08T06:58:23;73;69;
62591;PMS5003;48659;41.622;2.276;2022-12-08T07:00:50;73;65;
62591;PMS5003;48659;41.622;2.276;2022-12-08T07:03:17;75;65;
62591;PMS5003;48659;41.622;2.276;2022-12-08T07:05:46;82;68;
62591;PMS5003;48659;41.622;2.276;2022-12-08T07:08:13;82;72;
62591;PMS5003;48659;41.622;2.276;2022-12-08T07:10:42;82;71;
62591;PMS5003;48659;41.622;2.276;2022-12-08T07:13:09;66;64;
62591;PMS5003;48659;41.622;2.276;2022-12-08T07:15:36;70;68;
62591;PMS5003;48659;41.622;2.276;2022-12-08T07:18:03;70;68;
62591;PMS5003;48659;41.622;2.276;2022-12-08T07:20:31;69;63;
62591;PMS5003;48659;41.622;2.276;2022-12-08T07:22:58;75;61;
62591;PMS5003;48659;41.622;2.276;2022-12-08T07:25:26;61;57;
62591;PMS5003;48659;41.622;2.276;2022-12-08T07:27:53;59;56;
62591;PMS5003;48659;41.622;2.276;2022-12-08T07:30:22;65;59;
62591;PMS5003;48659;41.622;2.276;2022-12-08T07:32:49;67;59;
62591;PMS5003;48659;41.622;2.276;2022-12-08T07:35:17;68;61;
62591;PMS5003;48659;41.622;2.276;2022-12-08T07:37:44;58;55;
62591;PMS5003;48659;41.622;2.276;2022-12-08T07:40:21;55;52;
62591;PMS5003;48659;41.622;2.276;2022-12-08T07:42:48;67;62;
62591;PMS5003;48659;41.622;2.276;2022-12-08T07:45:16;60;54;
62591;PMS5003;48659;41.622;2.276;2022-12-08T07:47:43;62;57;
62591;PMS5003;48659;41.622;2.276;2022-12-08T07:50:13;67;59;
62591;PMS5003;48659;41.622;2.276;2022-12-08T07:52:51;64;55;
62591;PMS5003;48659;41.622;2.276;2022-12-08T07:55:19;66;60;
62591;PMS5003;48659;41.622;2.276;2022-12-08T07:57:52;67;58;
62591;PMS5003;48659;41.622;2.276;2022-12-08T08:00:20;52;48;
62591;PMS5003;48659;41.622;2.276;2022-12-08T08:02:48;58;56;
62591;PMS5003;48659;41.622;2.276;2022-12-08T08:05:19;56;48;
62591;PMS5003;48659;41.622;2.276;2022-12-08T08:07:47;63;56;
62591;PMS5003;48659;41.622;2.276;2022-12-08T08:10:19;49;45;
62591;PMS5003;48659;41.622;2.276;2022-12-08T08:12:46;59;52;
62591;PMS5003;48659;41.622;2.276;2022-12-08T08:15:14;56;53;
62591;PMS5003;48659;41.622;2.276;2022-12-08T08:17:58;53;48;
62591;PMS5003;48659;41.622;2.276;2022-12-08T08:20:26;64;56;
62591;PMS5003;48659;41.622;2.276;2022-12-08T08:22:54;61;56;
62591;PMS5003;48659;41.622;2.276;2022-12-08T08:25:21;62;54;
62591;PMS5003;48659;41.622;2.276;2022-12-08T08:27:53;54;51;
62591;PMS5003;48659;41.622;2.276;2022-12-08T08:30:20;49;49;
62591;PMS5003;48659;41.622;2.276;2022-12-08T08:32:47;58;55;
62591;PMS5003;48659;41.622;2.276;2022-12-08T08:35:14;55;46;
62591;PMS5003;48659;41.622;2.276;2022-12-08T08:37:42;62;57;
62591;PMS5003;48659;41.622;2.276;2022-12-08T08:40:12;59;55;
62591;PMS5003;48659;41.622;2.276;2022-12-08T08:42:39;55;53;
62591;PMS5003;48659;41.622;2.276;2022-12-08T08:45:11;54;50;
62591;PMS5003;48659;41.622;2.276;2022-12-08T08:47:44;53;51;
62591;PMS5003;48659;41.622;2.276;2022-12-08T08:50:11;68;59;
62591;PMS5003;48659;41.622;2.276;2022-12-08T08:52:39;63;57;
62591;PMS5003;48659;41.622;2.276;2022-12-08T08:55:07;62;56;
62591;PMS5003;48659;41.622;2.276;2022-12-08T08:57:35;69;61;
62591;PMS5003;48659;41.622;2.276;2022-12-08T09:00:10;71;62;
62591;PMS5003;48659;41.622;2.276;2022-12-08T09:02:39;69;62;
62591;PMS5003;48659;41.622;2.276;2022-12-08T09:05:06;66;60;
62591;PMS5003;48659;41.622;2.276;2022-12-08T09:07:34;56;53;
62591;PMS5003;48659;41.622;2.276;2022-12-08T09:10:02;62;62;
62591;PMS5003;48659;41.622;2.276;2022-12-08T09:12:30;65;62;
62591;PMS5003;48659;41.622;2.276;2022-12-08T09:14:58;58;58;
62591;PMS5003;48659;41.622;2.276;2022-12-08T09:17:39;63;59;
62591;PMS5003;48659;41.622;2.276;2022-12-08T09:20:07;60;55;
62591;PMS5003;48659;41.622;2.276;2022-12-08T09:22:35;73;65;
62591;PMS5003;48659;41.622;2.276;2022-12-08T09:25:03;60;54;
62591;PMS5003;48659;41.622;2.276;2022-12-08T09:27:30;52;47;
62591;PMS5003;48659;41.622;2.276;2022-12-08T09:29:58;62;60;
62591;PMS5003;48659;41.622;2.276;2022-12-08T09:32:25;55;53;
62591;PMS5003;48659;41.622;2.276;2022-12-08T09:34:53;70;60;
62591;PMS5003;48659;41.622;2.276;2022-12-08T09:37:24;64;61;
62591;PMS5003;48659;41.622;2.276;2022-12-08T09:39:54;58;56;
62591;PMS5003;48659;41.622;2.276;2022-12-08T09:42:30;61;56;
62591;PMS5003;48659;41.622;2.276;2022-12-08T09:45:05;58;55;
62591;PMS5003;48659;41.622;2.276;2022-12-08T09:47:38;53;47;
62591;PMS5003;48659;41.622;2.276;2022-12-08T09:50:11;58;51;
62591;PMS5003;48659;41.622;2.276;2022-12-08T09:52:44;52;49;
62591;PMS5003;48659;41.622;2.276;2022-12-08T09:55:23;59;54;
62591;PMS5003;48659;41.622;2.276;2022-12-08T09:58:02;53;50;
62591;PMS5003;48659;41.622;2.276;2022-12-08T10:00:37;53;47;
62591;PMS5003;48659;41.622;2.276;2022-12-08T10:03:06;54;51;
62591;PMS5003;48659;41.622;2.276;2022-12-08T10:05:38;52;50;
62591;PMS5003;48659;41.622;2.276;2022-12-08T10:08:13;52;51;
62591;PMS5003;48659;41.622;2.276;2022-12-08T10:10:46;56;53;
62591;PMS5003;48659;41.622;2.276;2022-12-08T10:13:21;64;58;
62591;PMS5003;48659;41.622;2.276;2022-12-08T10:16:03;59;58;
62591;PMS5003;48659;41.622;2.276;2022-12-08T10:18:40;59;51;
62591;PMS5003;48659;41.622;2.276;2022-12-08T10:21:17;67;61;
62591;PMS5003;48659;41.622;2.276;2022-12-08T10:23:47;72;61;
62591;PMS5003;48659;41.622;2.276;2022-12-08T10:26:18;68;61;
62591;PMS5003;48659;41.622;2.276;2022-12-08T10:28:47;59;52;
62591;PMS5003;48659;41.622;2.276;2022-12-08T10:31:15;63;58;
62591;PMS5003;48659;41.622;2.276;2022-12-08T10:33:45;65;61;
62591;PMS5003;48659;41.622;2.276;2022-12-08T10:36:18;70;62;
62591;PMS5003;48659;41.622;2.276;2022-12-08T10:38:45;64;59;
62591;PMS5003;48659;41.622;2.276;2022-12-08T10:41:14;62;56;
62591;PMS5003;48659;41.622;2.276;2022-12-08T10:43:43;67;58;
62591;PMS5003;48659;41.622;2.276;2022-12-08T10:46:13;65;59;
62591;PMS5003;48659;41.622;2.276;2022-12-08T10:48:52;68;64;
62591;PMS5003;48659;41.622;2.276;2022-12-08T10:51:22;72;68;
62591;PMS5003;48659;41.622;2.276;2022-12-08T10:53:53;64;60;
62591;PMS5003;48659;41.622;2.276;2022-12-08T10:56:23;79;78;
62591;PMS5003;48659;41.622;2.276;2022-12-08T10:59:04;98;88;
62591;PMS5003;48659;41.622;2.276;2022-12-08T11:01:38;77;72;
62591;PMS5003;48659;41.622;2.276;2022-12-08T11:04:10;86;77;
62591;PMS5003;48659;41.622;2.276;2022-12-08T11:06:42;76;68;
62591;PMS5003;48659;41.622;2.276;2022-12-08T11:09:46;80;73;
62591;PMS5003;48659;41.622;2.276;2022-12-08T11:12:18;82;72;
62591;PMS5003;48659;41.622;2.276;2022-12-08T11:14:48;68;66;
62591;PMS5003;48659;41.622;2.276;2022-12-08T11:17:23;95;83;
62591;PMS5003;48659;41.622;2.276;2022-12-08T11:19:56;71;66;
62591;PMS5003;48659;41.622;2.276;2022-12-08T11:22:26;64;60;
62591;PMS5003;48659;41.622;2.276;2022-12-08T11:24:58;74;70;
62591;PMS5003;48659;41.622;2.276;2022-12-08T11:27:28;75;65;
62591;PMS5003;48659;41.622;2.276;2022-12-08T11:29:56;74;66;
62591;PMS5003;48659;41.622;2.276;2022-12-08T11:32:23;79;73;
62591;PMS5003;48659;41.622;2.276;2022-12-08T11:34:52;74;70;
62591;PMS5003;48659;41.622;2.276;2022-12-08T11:37:30;66;63;
62591;PMS5003;48659;41.622;2.276;2022-12-08T11:40:06;70;63;
62591;PMS5003;48659;41.622;2.276;2022-12-08T11:42:44;77;69;
62591;PMS5003;48659;41.622;2.276;2022-12-08T11:45:20;76;75;
62591;PMS5003;48659;41.622;2.276;2022-12-08T11:47:55;77;65;
62591;PMS5003;48659;41.622;2.276;2022-12-08T11:50:30;77;65;
62591;PMS5003;48659;41.622;2.276;2022-12-08T11:53:07;69;66;
62591;PMS5003;48659;41.622;2.276;2022-12-08T11:55:47;75;68;
62591;PMS5003;48659;41.622;2.276;2022-12-08T11:58:21;74;68;
62591;PMS5003;48659;41.622;2.276;2022-12-08T12:00:53;74;68;
62591;PMS5003;48659;41.622;2.276;2022-12-08T12:03:23;74;68;
62591;PMS5003;48659;41.622;2.276;2022-12-08T12:06:01;77;70;
62591;PMS5003;48659;41.622;2.276;2022-12-08T12:08:45;77;72;
62591;PMS5003;48659;41.622;2.276;2022-12-08T12:11:23;72;69;
62591;PMS5003;48659;41.622;2.276;2022-12-08T12:14:02;76;68;
62591;PMS5003;48659;41.622;2.276;2022-12-08T12:16:42;68;63;
62591;PMS5003;48659;41.622;2.276;2022-12-08T12:19:19;78;68;
62591;PMS5003;48659;41.622;2.276;2022-12-08T12:21:49;86;81;
62591;PMS5003;48659;41.622;2.276;2022-12-08T12:24:21;85;78;
62591;PMS5003;48659;41.622;2.276;2022-12-08T12:26:54;79;76;
62591;PMS5003;48659;41.622;2.276;2022-12-08T12:29:25;81;74;
62591;PMS5003;48659;41.622;2.276;2022-12-08T12:31:57;80;77;
62591;PMS5003;48659;41.622;2.276;2022-12-08T12:34:28;78;73;
62591;PMS5003;48659;41.622;2.276;2022-12-08T12:36:58;78;74;
62591;PMS5003;48659;41.622;2.276;2022-12-08T12:39:33;81;74;
62591;PMS5003;48659;41.622;2.276;2022-12-08T12:42:34;79;73;
62591;PMS5003;48659;41.622;2.276;2022-12-08T12:45:37;76;74;
62591;PMS5003;48659;41.622;2.276;2022-12-08T12:48:23;71;66;
62591;PMS5003;48659;41.622;2.276;2022-12-08T12:50:51;82;70;
62591;PMS5003;48659;41.622;2.276;2022-12-08T12:53:50;89;80;
62591;PMS5003;48659;41.622;2.276;2022-12-08T12:56:45;99;92;
62591;PMS5003;48659;41.622;2.276;2022-12-08T12:59:53;97;91;
62591;PMS5003;48659;41.622;2.276;2022-12-08T13:02:36;96;88;
62591;PMS5003;48659;41.622;2.276;2022-12-08T13:05:13;92;85;
62591;PMS5003;48659;41.622;2.276;2022-12-08T13:07:44;95;87;
62591;PMS5003;48659;41.622;2.276;2022-12-08T13:10:18;90;81;
62591;PMS5003;48659;41.622;2.276;2022-12-08T13:13:00;78;74;
62591;PMS5003;48659;41.622;2.276;2022-12-08T13:15:33;101;90;
62591;PMS5003;48659;41.622;2.276;2022-12-08T13:18:04;107;93;
62591;PMS5003;48659;41.622;2.276;2022-12-08T13:20:39;100;91;
62591;PMS5003;48659;41.622;2.276;2022-12-08T13:23:28;99;89;
62591;PMS5003;48659;41.622;2.276;2022-12-08T13:26:18;89;86;
62591;PMS5003;48659;41.622;2.276;2022-12-08T13:29:20;92;86;
62591;PMS5003;48659;41.622;2.276;2022-12-08T13:31:50;98;86;
62591;PMS5003;48659;41.622;2.276;2022-12-08T13:34:20;99;91;
62591;PMS5003;48659;41.622;2.276;2022-12-08T13:36:59;92;84;
62591;PMS5003;48659;41.622;2.276;2022-12-08T13:39:35;108;97;
62591;PMS5003;48659;41.622;2.276;2022-12-08T13:42:12;98;86;
62591;PMS5003;48659;41.622;2.276;2022-12-08T13:44:48;104;93;
62591;PMS5003;48659;41.622;2.276;2022-12-08T13:47:21;93;86;
62591;PMS5003;48659;41.622;2.276;2022-12-08T13:49:53;106;96;
62591;PMS5003;48659;41.622;2.276;2022-12-08T13:52:29;98;89;
62591;PMS5003;48659;41.622;2.276;2022-12-08T13:55:01;92;85;
62591;PMS5003;48659;41.622;2.276;2022-12-08T13:57:32;93;87;
62591;PMS5003;48659;41.622;2.276;2022-12-08T14:00:03;94;82;
62591;PMS5003;48659;41.622;2.276;2022-12-08T14:02:33;94;83;
62591;PMS5003;48659;41.622;2.276;2022-12-08T14:05:02;100;82;
62591;PMS5003;48659;41.622;2.276;2022-12-08T14:07:31;80;78;
62591;PMS5003;48659;41.622;2.276;2022-12-08T14:10:01;78;75;
62591;PMS5003;48659;41.622;2.276;2022-12-08T14:12:30;83;75;
62591;PMS5003;48659;41.622;2.276;2022-12-08T14:14:59;86;79;
62591;PMS5003;48659;41.622;2.276;2022-12-08T14:17:28;95;85;
62591;PMS5003;48659;41.622;2.276;2022-12-08T14:19:56;85;79;
62591;PMS5003;48659;41.622;2.276;2022-12-08T14:22:31;83;78;
62591;PMS5003;48659;41.622;2.276;2022-12-08T14:25:00;79;78;
62591;PMS5003;48659;41.622;2.276;2022-12-08T14:27:31;86;78;
62591;PMS5003;48659;41.622;2.276;2022-12-08T14:30:12;83;78;
62591;PMS5003;48659;41.622;2.276;2022-12-08T14:32:46;93;89;
62591;PMS5003;48659;41.622;2.276;2022-12-08T14:35:18;77;72;
62591;PMS5003;48659;41.622;2.276;2022-12-08T14:37:49;82;77;
62591;PMS5003;48659;41.622;2.276;2022-12-08T14:40:19;91;84;
62591;PMS5003;48659;41.622;2.276;2022-12-08T14:42:49;87;81;
62591;PMS5003;48659;41.622;2.276;2022-12-08T14:45:19;80;75;
62591;PMS5003;48659;41.622;2.276;2022-12-08T14:47:47;85;79;
62591;PMS5003;48659;41.622;2.276;2022-12-08T14:50:53;92;81;
62591;PMS5003;48659;41.622;2.276;2022-12-08T14:53:24;72;71;
62591;PMS5003;48659;41.622;2.276;2022-12-08T14:55:57;81;78;
62591;PMS5003;48659;41.622;2.276;2022-12-08T14:58:25;86;77;
62591;PMS5003;48659;41.622;2.276;2022-12-08T15:00:56;93;87;
62591;PMS5003;48659;41.622;2.276;2022-12-08T15:03:25;99;89;
62591;PMS5003;48659;41.622;2.276;2022-12-08T15:05:56;100;94;
62591;PMS5003;48659;41.622;2.276;2022-12-08T15:08:25;105;95;
62591;PMS5003;48659;41.622;2.276;2022-12-08T15:13:04;94;89;
62591;PMS5003;48659;41.622;2.276;2022-12-08T15:15:44;109;103;
62591;PMS5003;48659;41.622;2.276;2022-12-08T15:18:14;102;88;
62591;PMS5003;48659;41.622;2.276;2022-12-08T15:20:44;106;88;
62591;PMS5003;48659;41.622;2.276;2022-12-08T15:23:17;98;91;
62591;PMS5003;48659;41.622;2.276;2022-12-08T15:25:48;103;96;
62591;PMS5003;48659;41.622;2.276;2022-12-08T15:28:17;106;99;
62591;PMS5003;48659;41.622;2.276;2022-12-08T15:30:46;105;96;
62591;PMS5003;48659;41.622;2.276;2022-12-08T15:33:13;104;91;
62591;PMS5003;48659;41.622;2.276;2022-12-08T15:35:41;101;95;
62591;PMS5003;48659;41.622;2.276;2022-12-08T15:38:15;100;93;
62591;PMS5003;48659;41.622;2.276;2022-12-08T15:40:46;88;85;
62591;PMS5003;48659;41.622;2.276;2022-12-08T15:43:15;85;83;
62591;PMS5003;48659;41.622;2.276;2022-12-08T15:45:42;96;92;
62591;PMS5003;48659;41.622;2.276;2022-12-08T15:48:13;99;88;
62591;PMS5003;48659;41.622;2.276;2022-12-08T15:50:43;99;93;
62591;PMS5003;48659;41.622;2.276;2022-12-08T15:53:10;96;91;
62591;PMS5003;48659;41.622;2.276;2022-12-08T15:55:38;105;95;
62591;PMS5003;48659;41.622;2.276;2022-12-08T15:58:06;97;91;
62591;PMS5003;48659;41.622;2.276;2022-12-08T16:00:41;102;93;
62591;PMS5003;48659;41.622;2.276;2022-12-08T16:03:10;103;95;
62591;PMS5003;48659;41.622;2.276;2022-12-08T16:05:45;104;98;
62591;PMS5003;48659;41.622;2.276;2022-12-08T16:08:13;105;92;
62591;PMS5003;48659;41.622;2.276;2022-12-08T16:10:42;108;94;
62591;PMS5003;48659;41.622;2.276;2022-12-08T16:13:12;98;86;
62591;PMS5003;48659;41.622;2.276;2022-12-08T16:15:42;103;91;
62591;PMS5003;48659;41.622;2.276;2022-12-08T16:18:13;85;82;
62591;PMS5003;48659;41.622;2.276;2022-12-08T16:20:42;92;80;
62591;PMS5003;48659;41.622;2.276;2022-12-08T16:23:10;80;77;
62591;PMS5003;48659;41.622;2.276;2022-12-08T16:25:37;87;80;
62591;PMS5003;48659;41.622;2.276;2022-12-08T16:28:04;87;78;
62591;PMS5003;48659;41.622;2.276;2022-12-08T16:30:31;90;83;
62591;PMS5003;48659;41.622;2.276;2022-12-08T16:32:59;80;79;
62591;PMS5003;48659;41.622;2.276;2022-12-08T16:35:27;88;79;
62591;PMS5003;48659;41.622;2.276;2022-12-08T16:37:55;96;90;
62591;PMS5003;48659;41.622;2.276;2022-12-08T16:40:23;93;84;
62591;PMS5003;48659;41.622;2.276;2022-12-08T16:42:51;79;76;
62591;PMS5003;48659;41.622;2.276;2022-12-08T16:45:19;91;79;
62591;PMS5003;48659;41.622;2.276;2022-12-08T16:47:49;90;84;
62591;PMS5003;48659;41.622;2.276;2022-12-08T16:50:18;82;79;
62591;PMS5003;48659;41.622;2.276;2022-12-08T16:52:48;100;92;